Alburg, Vermont
Current Conditions -  °F | °C
As of 2:15 PM on Thursday 30 Oct 2014 (Local Time) from KFSO Reporting Station
Overcast Overcast  
Wind Chill: 44°   Ceiling: 3600
Heat Index: 47°   Visibility: 10mi
Dew Point: 33°   Wind: 7mph
Humidity: 59%   Direction: 320°NW
Pressure: 29.97"   Gusts: NA
Location:  44.9685°N, 73.281°W
Report Text: KFSO 301815Z AUTO 32006KT 10SM OVC036 08/01 A2997 RMK AO2 T00830007
Loading
Personal Weather Stations






























Interactive Weather Map New forecast layout! Learn more

10-Day Weather Forecast

Advertisements
Track Severe Weather on mobile